sensor_id;sensor_type;location;lat;lon;timestamp;temperature;humidity
25108;DHT22;13090;53.422;7.670;2023-04-25T00:00:51;9.60;84.10
25108;DHT22;13090;53.422;7.670;2023-04-25T00:06:01;9.60;84.00
25108;DHT22;13090;53.422;7.670;2023-04-25T00:11:37;9.60;84.10
25108;DHT22;13090;53.422;7.670;2023-04-25T00:16:56;9.50;83.60
25108;DHT22;13090;53.422;7.670;2023-04-25T00:22:07;9.50;83.60
25108;DHT22;13090;53.422;7.670;2023-04-25T00:27:38;9.50;83.60
25108;DHT22;13090;53.422;7.670;2023-04-25T00:33:19;9.40;83.50
25108;DHT22;13090;53.422;7.670;2023-04-25T00:38:36;9.40;83.70
25108;DHT22;13090;53.422;7.670;2023-04-25T00:44:03;9.40;83.70
25108;DHT22;13090;53.422;7.670;2023-04-25T00:55:21;9.40;83.40
25108;DHT22;13090;53.422;7.670;2023-04-25T01:06:24;9.20;83.20
25108;DHT22;13090;53.422;7.670;2023-04-25T01:12:03;9.20;83.30
25108;DHT22;13090;53.422;7.670;2023-04-25T01:28:54;8.70;82.60
25108;DHT22;13090;53.422;7.670;2023-04-25T01:34:21;8.60;82.60
25108;DHT22;13090;53.422;7.670;2023-04-25T01:39:42;8.50;82.80
25108;DHT22;13090;53.422;7.670;2023-04-25T01:45:00;8.40;82.80
25108;DHT22;13090;53.422;7.670;2023-04-25T01:55:48;8.20;83.40
25108;DHT22;13090;53.422;7.670;2023-04-25T02:01:24;8.20;83.30
25108;DHT22;13090;53.422;7.670;2023-04-25T02:06:31;8.20;83.00
25108;DHT22;13090;53.422;7.670;2023-04-25T02:11:56;8.20;83.00
25108;DHT22;13090;53.422;7.670;2023-04-25T02:17:15;8.10;82.80
25108;DHT22;13090;53.422;7.670;2023-04-25T02:22:29;8.00;82.70
25108;DHT22;13090;53.422;7.670;2023-04-25T02:27:34;8.00;82.80
25108;DHT22;13090;53.422;7.670;2023-04-25T02:33:19;7.90;82.80
25108;DHT22;13090;53.422;7.670;2023-04-25T02:38:29;7.90;82.80
25108;DHT22;13090;53.422;7.670;2023-04-25T02:43:57;7.80;82.90
25108;DHT22;13090;53.422;7.670;2023-04-25T02:49:15;7.80;83.00
25108;DHT22;13090;53.422;7.670;2023-04-25T03:00:57;7.80;83.00
25108;DHT22;13090;53.422;7.670;2023-04-25T03:06:41;7.80;83.20
25108;DHT22;13090;53.422;7.670;2023-04-25T03:12:23;7.80;83.00
25108;DHT22;13090;53.422;7.670;2023-04-25T03:18:01;7.90;83.30
25108;DHT22;13090;53.422;7.670;2023-04-25T03:23:32;7.90;83.40
25108;DHT22;13090;53.422;7.670;2023-04-25T03:29:01;8.00;83.40
25108;DHT22;13090;53.422;7.670;2023-04-25T03:34:29;8.00;83.40
25108;DHT22;13090;53.422;7.670;2023-04-25T03:39:52;8.10;83.40
25108;DHT22;13090;53.422;7.670;2023-04-25T03:45:11;8.10;83.40
25108;DHT22;13090;53.422;7.670;2023-04-25T03:50:24;8.10;83.40
25108;DHT22;13090;53.422;7.670;2023-04-25T03:55:33;8.20;83.40
25108;DHT22;13090;53.422;7.670;2023-04-25T04:00:50;8.20;83.40
25108;DHT22;13090;53.422;7.670;2023-04-25T04:06:00;8.20;83.20
25108;DHT22;13090;53.422;7.670;2023-04-25T04:11:34;8.20;82.90
25108;DHT22;13090;53.422;7.670;2023-04-25T04:16:48;8.10;82.60
25108;DHT22;13090;53.422;7.670;2023-04-25T04:21:53;8.00;82.50
25108;DHT22;13090;53.422;7.670;2023-04-25T04:27:21;8.00;82.60
25108;DHT22;13090;53.422;7.670;2023-04-25T04:32:49;7.80;82.70
25108;DHT22;13090;53.422;7.670;2023-04-25T04:38:08;7.70;82.80
25108;DHT22;13090;53.422;7.670;2023-04-25T04:43:21;7.70;83.00
25108;DHT22;13090;53.422;7.670;2023-04-25T05:05:54;8.00;83.60
25108;DHT22;13090;53.422;7.670;2023-04-25T05:12:31;8.30;84.20
25108;DHT22;13090;53.422;7.670;2023-04-25T05:18:21;9.00;85.40
25108;DHT22;13090;53.422;7.670;2023-04-25T05:23:47;10.10;85.50
25108;DHT22;13090;53.422;7.670;2023-04-25T05:29:18;11.20;82.00
25108;DHT22;13090;53.422;7.670;2023-04-25T05:52:50;11.80;75.60
25108;DHT22;13090;53.422;7.670;2023-04-25T05:58:26;11.40;76.60
25108;DHT22;13090;53.422;7.670;2023-04-25T06:10:52;11.20;79.10
25108;DHT22;13090;53.422;7.670;2023-04-25T06:27:42;14.00;76.90
25108;DHT22;13090;53.422;7.670;2023-04-25T06:33:08;13.80;74.90
25108;DHT22;13090;53.422;7.670;2023-04-25T06:38:11;13.50;75.00
25108;DHT22;13090;53.422;7.670;2023-04-25T06:43:14;13.30;74.50
25108;DHT22;13090;53.422;7.670;2023-04-25T06:48:16;13.00;74.60
25108;DHT22;13090;53.422;7.670;2023-04-25T06:53:19;12.80;74.60
25108;DHT22;13090;53.422;7.670;2023-04-25T06:58:22;12.50;73.80
25108;DHT22;13090;53.422;7.670;2023-04-25T07:03:24;12.00;73.50
25108;DHT22;13090;53.422;7.670;2023-04-25T07:08:28;11.40;74.20
25108;DHT22;13090;53.422;7.670;2023-04-25T07:13:32;11.00;75.80
25108;DHT22;13090;53.422;7.670;2023-04-25T07:18:34;11.00;78.40
25108;DHT22;13090;53.422;7.670;2023-04-25T07:23:37;11.40;80.10
25108;DHT22;13090;53.422;7.670;2023-04-25T07:28:40;12.00;80.10
25108;DHT22;13090;53.422;7.670;2023-04-25T07:33:42;12.90;81.70
25108;DHT22;13090;53.422;7.670;2023-04-25T07:38:45;14.10;80.60
25108;DHT22;13090;53.422;7.670;2023-04-25T07:43:49;14.60;76.10
25108;DHT22;13090;53.422;7.670;2023-04-25T07:48:51;14.60;72.80
25108;DHT22;13090;53.422;7.670;2023-04-25T07:53:54;14.10;72.00
25108;DHT22;13090;53.422;7.670;2023-04-25T07:58:58;13.60;72.70
25108;DHT22;13090;53.422;7.670;2023-04-25T08:04:00;13.20;73.70
25108;DHT22;13090;53.422;7.670;2023-04-25T08:09:03;13.00;74.40
25108;DHT22;13090;53.422;7.670;2023-04-25T08:14:07;13.00;75.20
25108;DHT22;13090;53.422;7.670;2023-04-25T08:19:09;13.40;76.10
25108;DHT22;13090;53.422;7.670;2023-04-25T08:24:11;14.00;77.30
25108;DHT22;13090;53.422;7.670;2023-04-25T08:29:15;15.10;78.50
25108;DHT22;13090;53.422;7.670;2023-04-25T08:34:17;16.30;76.90
25108;DHT22;13090;53.422;7.670;2023-04-25T08:39:19;16.90;70.90
25108;DHT22;13090;53.422;7.670;2023-04-25T08:44:23;16.50;68.20
25108;DHT22;13090;53.422;7.670;2023-04-25T08:49:26;15.80;66.20
25108;DHT22;13090;53.422;7.670;2023-04-25T08:54:31;14.90;65.50
25108;DHT22;13090;53.422;7.670;2023-04-25T08:59:39;14.10;66.90
25108;DHT22;13090;53.422;7.670;2023-04-25T09:04:43;13.40;69.30
25108;DHT22;13090;53.422;7.670;2023-04-25T09:09:45;13.10;71.30
25108;DHT22;13090;53.422;7.670;2023-04-25T09:15:04;13.00;72.30
25108;DHT22;13090;53.422;7.670;2023-04-25T09:20:08;13.10;72.40
25108;DHT22;13090;53.422;7.670;2023-04-25T09:25:12;13.60;74.80
25108;DHT22;13090;53.422;7.670;2023-04-25T09:30:17;14.30;74.90
25108;DHT22;13090;53.422;7.670;2023-04-25T09:35:24;15.10;74.70
25108;DHT22;13090;53.422;7.670;2023-04-25T09:40:27;16.00;72.20
25108;DHT22;13090;53.422;7.670;2023-04-25T09:45:31;16.40;69.70
25108;DHT22;13090;53.422;7.670;2023-04-25T09:50:33;16.30;66.50
25108;DHT22;13090;53.422;7.670;2023-04-25T09:55:36;16.30;66.60
25108;DHT22;13090;53.422;7.670;2023-04-25T10:00:41;16.60;67.30
25108;DHT22;13090;53.422;7.670;2023-04-25T10:05:43;16.90;64.80
25108;DHT22;13090;53.422;7.670;2023-04-25T10:10:47;17.20;66.40
25108;DHT22;13090;53.422;7.670;2023-04-25T10:15:52;17.40;62.80
25108;DHT22;13090;53.422;7.670;2023-04-25T10:20:57;17.10;59.80
25108;DHT22;13090;53.422;7.670;2023-04-25T10:26:00;16.60;59.60
25108;DHT22;13090;53.422;7.670;2023-04-25T10:31:07;16.40;61.10
25108;DHT22;13090;53.422;7.670;2023-04-25T10:36:12;16.30;60.70
25108;DHT22;13090;53.422;7.670;2023-04-25T10:41:14;15.90;61.70
25108;DHT22;13090;53.422;7.670;2023-04-25T10:46:21;15.60;63.10
25108;DHT22;13090;53.422;7.670;2023-04-25T10:51:25;15.40;62.80
25108;DHT22;13090;53.422;7.670;2023-04-25T10:56:30;15.30;62.10
25108;DHT22;13090;53.422;7.670;2023-04-25T11:01:38;15.20;61.00
25108;DHT22;13090;53.422;7.670;2023-04-25T11:06:51;15.30;60.40
25108;DHT22;13090;53.422;7.670;2023-04-25T11:12:09;15.70;62.00
25108;DHT22;13090;53.422;7.670;2023-04-25T11:17:12;16.00;60.00
25108;DHT22;13090;53.422;7.670;2023-04-25T11:22:14;16.30;61.10
25108;DHT22;13090;53.422;7.670;2023-04-25T11:27:17;16.60;59.90
25108;DHT22;13090;53.422;7.670;2023-04-25T11:32:21;17.10;57.40
25108;DHT22;13090;53.422;7.670;2023-04-25T11:37:24;17.30;57.80
25108;DHT22;13090;53.422;7.670;2023-04-25T11:42:27;17.40;57.10
25108;DHT22;13090;53.422;7.670;2023-04-25T11:47:31;17.40;57.40
25108;DHT22;13090;53.422;7.670;2023-04-25T11:52:38;17.30;54.80
25108;DHT22;13090;53.422;7.670;2023-04-25T11:57:41;16.90;54.10
25108;DHT22;13090;53.422;7.670;2023-04-25T12:02:45;16.50;55.20
25108;DHT22;13090;53.422;7.670;2023-04-25T12:07:48;16.30;55.50
25108;DHT22;13090;53.422;7.670;2023-04-25T12:12:51;16.40;56.00
25108;DHT22;13090;53.422;7.670;2023-04-25T12:17:54;16.70;56.80
25108;DHT22;13090;53.422;7.670;2023-04-25T12:22:57;17.00;56.00
25108;DHT22;13090;53.422;7.670;2023-04-25T12:28:12;17.20;56.00
25108;DHT22;13090;53.422;7.670;2023-04-25T12:33:17;17.40;55.10
25108;DHT22;13090;53.422;7.670;2023-04-25T12:38:23;17.50;55.10
25108;DHT22;13090;53.422;7.670;2023-04-25T12:43:26;17.50;55.20
25108;DHT22;13090;53.422;7.670;2023-04-25T12:48:30;17.40;55.70
25108;DHT22;13090;53.422;7.670;2023-04-25T12:53:32;17.10;55.90
25108;DHT22;13090;53.422;7.670;2023-04-25T12:58:36;16.70;56.40
25108;DHT22;13090;53.422;7.670;2023-04-25T13:03:40;16.20;56.80
25108;DHT22;13090;53.422;7.670;2023-04-25T13:08:43;15.70;56.90
25108;DHT22;13090;53.422;7.670;2023-04-25T13:13:46;15.40;58.30
25108;DHT22;13090;53.422;7.670;2023-04-25T13:18:49;15.20;58.60
25108;DHT22;13090;53.422;7.670;2023-04-25T13:23:52;15.10;58.80
25108;DHT22;13090;53.422;7.670;2023-04-25T13:28:55;15.00;58.60
25108;DHT22;13090;53.422;7.670;2023-04-25T13:33:59;15.00;58.70
25108;DHT22;13090;53.422;7.670;2023-04-25T13:39:01;14.90;58.60
25108;DHT22;13090;53.422;7.670;2023-04-25T13:44:04;14.80;57.30
25108;DHT22;13090;53.422;7.670;2023-04-25T13:49:07;14.80;58.40
25108;DHT22;13090;53.422;7.670;2023-04-25T13:54:14;14.90;59.60
25108;DHT22;13090;53.422;7.670;2023-04-25T13:59:16;15.30;60.50
25108;DHT22;13090;53.422;7.670;2023-04-25T14:04:20;15.60;59.00
25108;DHT22;13090;53.422;7.670;2023-04-25T14:09:22;15.80;57.40
25108;DHT22;13090;53.422;7.670;2023-04-25T14:14:24;15.70;57.10
25108;DHT22;13090;53.422;7.670;2023-04-25T14:19:28;15.60;56.50
25108;DHT22;13090;53.422;7.670;2023-04-25T14:24:31;15.50;55.60
25108;DHT22;13090;53.422;7.670;2023-04-25T14:29:33;15.30;55.40
25108;DHT22;13090;53.422;7.670;2023-04-25T14:34:37;15.10;56.00
25108;DHT22;13090;53.422;7.670;2023-04-25T14:39:39;15.00;56.00
25108;DHT22;13090;53.422;7.670;2023-04-25T14:44:42;15.00;55.80
25108;DHT22;13090;53.422;7.670;2023-04-25T14:49:45;14.90;56.20
25108;DHT22;13090;53.422;7.670;2023-04-25T14:54:48;14.80;57.40
25108;DHT22;13090;53.422;7.670;2023-04-25T14:59:50;14.60;57.90
25108;DHT22;13090;53.422;7.670;2023-04-25T15:04:54;14.50;58.50
25108;DHT22;13090;53.422;7.670;2023-04-25T15:09:56;14.30;58.00
25108;DHT22;13090;53.422;7.670;2023-04-25T15:14:58;14.10;58.20
25108;DHT22;13090;53.422;7.670;2023-04-25T15:20:05;13.80;58.50
25108;DHT22;13090;53.422;7.670;2023-04-25T15:25:09;13.60;58.80
25108;DHT22;13090;53.422;7.670;2023-04-25T15:30:13;13.60;59.60
25108;DHT22;13090;53.422;7.670;2023-04-25T15:35:17;13.60;59.40
25108;DHT22;13090;53.422;7.670;2023-04-25T15:40:19;13.60;59.40
25108;DHT22;13090;53.422;7.670;2023-04-25T15:45:23;13.60;59.50
25108;DHT22;13090;53.422;7.670;2023-04-25T15:50:27;13.60;59.90
25108;DHT22;13090;53.422;7.670;2023-04-25T15:55:29;13.70;59.90
25108;DHT22;13090;53.422;7.670;2023-04-25T16:00:32;13.60;58.70
25108;DHT22;13090;53.422;7.670;2023-04-25T16:05:35;13.50;58.60
25108;DHT22;13090;53.422;7.670;2023-04-25T16:10:38;13.30;58.70
25108;DHT22;13090;53.422;7.670;2023-04-25T16:15:40;13.30;58.40
25108;DHT22;13090;53.422;7.670;2023-04-25T16:20:44;13.20;59.30
25108;DHT22;13090;53.422;7.670;2023-04-25T16:25:46;13.20;59.60
25108;DHT22;13090;53.422;7.670;2023-04-25T16:30:48;13.20;60.10
25108;DHT22;13090;53.422;7.670;2023-04-25T16:35:52;13.20;60.40
25108;DHT22;13090;53.422;7.670;2023-04-25T16:40:54;13.30;60.30
25108;DHT22;13090;53.422;7.670;2023-04-25T16:45:57;13.30;60.00
25108;DHT22;13090;53.422;7.670;2023-04-25T16:51:00;13.30;59.80
25108;DHT22;13090;53.422;7.670;2023-04-25T16:56:02;13.20;59.60
25108;DHT22;13090;53.422;7.670;2023-04-25T17:01:05;13.20;59.50
25108;DHT22;13090;53.422;7.670;2023-04-25T17:06:09;13.10;59.70
25108;DHT22;13090;53.422;7.670;2023-04-25T17:11:11;13.00;59.70
25108;DHT22;13090;53.422;7.670;2023-04-25T17:16:13;12.90;59.50
25108;DHT22;13090;53.422;7.670;2023-04-25T17:21:17;12.70;59.50
25108;DHT22;13090;53.422;7.670;2023-04-25T17:26:19;12.50;59.60
25108;DHT22;13090;53.422;7.670;2023-04-25T17:31:21;12.30;59.90
25108;DHT22;13090;53.422;7.670;2023-04-25T17:36:25;12.10;60.40
25108;DHT22;13090;53.422;7.670;2023-04-25T17:41:28;12.00;60.70
25108;DHT22;13090;53.422;7.670;2023-04-25T17:46:30;11.80;60.70
25108;DHT22;13090;53.422;7.670;2023-04-25T17:51:33;11.70;61.30
25108;DHT22;13090;53.422;7.670;2023-04-25T17:56:36;11.60;61.70
25108;DHT22;13090;53.422;7.670;2023-04-25T18:01:38;11.50;62.10
25108;DHT22;13090;53.422;7.670;2023-04-25T18:06:46;11.40;61.90
25108;DHT22;13090;53.422;7.670;2023-04-25T18:11:48;11.20;61.70
25108;DHT22;13090;53.422;7.670;2023-04-25T18:16:52;11.00;61.60
25108;DHT22;13090;53.422;7.670;2023-04-25T18:21:56;10.90;61.80
25108;DHT22;13090;53.422;7.670;2023-04-25T18:26:59;10.70;62.10
25108;DHT22;13090;53.422;7.670;2023-04-25T18:32:01;10.50;62.40
25108;DHT22;13090;53.422;7.670;2023-04-25T18:37:05;10.40;62.50
25108;DHT22;13090;53.422;7.670;2023-04-25T18:42:07;10.30;63.00
25108;DHT22;13090;53.422;7.670;2023-04-25T18:47:09;10.30;63.30
25108;DHT22;13090;53.422;7.670;2023-04-25T18:52:13;10.20;63.50
25108;DHT22;13090;53.422;7.670;2023-04-25T18:57:15;10.20;63.80
25108;DHT22;13090;53.422;7.670;2023-04-25T19:02:17;10.10;63.80
25108;DHT22;13090;53.422;7.670;2023-04-25T19:07:21;10.00;64.00
25108;DHT22;13090;53.422;7.670;2023-04-25T19:12:24;9.80;64.30
25108;DHT22;13090;53.422;7.670;2023-04-25T19:17:26;9.60;64.30
25108;DHT22;13090;53.422;7.670;2023-04-25T19:22:33;9.50;64.80
25108;DHT22;13090;53.422;7.670;2023-04-25T19:27:35;9.40;65.40
25108;DHT22;13090;53.422;7.670;2023-04-25T19:32:37;9.40;65.50
25108;DHT22;13090;53.422;7.670;2023-04-25T19:37:41;9.40;65.60
25108;DHT22;13090;53.422;7.670;2023-04-25T19:42:44;9.40;65.70
25108;DHT22;13090;53.422;7.670;2023-04-25T19:47:46;9.40;65.80
25108;DHT22;13090;53.422;7.670;2023-04-25T19:52:51;9.40;65.80
25108;DHT22;13090;53.422;7.670;2023-04-25T19:57:53;9.40;65.80
25108;DHT22;13090;53.422;7.670;2023-04-25T20:02:55;9.40;65.90
25108;DHT22;13090;53.422;7.670;2023-04-25T20:07:59;9.40;66.60
25108;DHT22;13090;53.422;7.670;2023-04-25T20:13:01;9.40;67.30
25108;DHT22;13090;53.422;7.670;2023-04-25T20:18:03;9.40;67.40
25108;DHT22;13090;53.422;7.670;2023-04-25T20:23:07;9.40;67.60
25108;DHT22;13090;53.422;7.670;2023-04-25T20:28:09;9.30;67.60
25108;DHT22;13090;53.422;7.670;2023-04-25T20:33:12;9.30;67.60
25108;DHT22;13090;53.422;7.670;2023-04-25T20:38:15;9.20;67.70
25108;DHT22;13090;53.422;7.670;2023-04-25T20:43:17;9.10;67.80
25108;DHT22;13090;53.422;7.670;2023-04-25T20:48:20;9.00;67.90
25108;DHT22;13090;53.422;7.670;2023-04-25T20:53:23;8.90;68.10
25108;DHT22;13090;53.422;7.670;2023-04-25T20:58:25;8.70;68.40
25108;DHT22;13090;53.422;7.670;2023-04-25T21:03:28;8.70;68.50
25108;DHT22;13090;53.422;7.670;2023-04-25T21:08:32;8.60;68.80
25108;DHT22;13090;53.422;7.670;2023-04-25T21:13:34;8.50;68.80
25108;DHT22;13090;53.422;7.670;2023-04-25T21:18:36;8.50;68.80
25108;DHT22;13090;53.422;7.670;2023-04-25T21:23:41;8.50;69.10
25108;DHT22;13090;53.422;7.670;2023-04-25T21:28:43;8.50;69.60
25108;DHT22;13090;53.422;7.670;2023-04-25T21:33:45;8.40;69.40
25108;DHT22;13090;53.422;7.670;2023-04-25T21:38:49;8.40;69.60
25108;DHT22;13090;53.422;7.670;2023-04-25T21:43:51;8.40;69.90
25108;DHT22;13090;53.422;7.670;2023-04-25T21:48:53;8.40;69.80
25108;DHT22;13090;53.422;7.670;2023-04-25T21:53:58;8.40;69.70
25108;DHT22;13090;53.422;7.670;2023-04-25T21:59:00;8.30;69.70
25108;DHT22;13090;53.422;7.670;2023-04-25T22:04:02;8.30;69.80
25108;DHT22;13090;53.422;7.670;2023-04-25T22:09:06;8.30;70.10
25108;DHT22;13090;53.422;7.670;2023-04-25T22:14:08;8.20;70.20
25108;DHT22;13090;53.422;7.670;2023-04-25T22:19:11;8.20;70.20
25108;DHT22;13090;53.422;7.670;2023-04-25T22:24:14;8.20;70.40
25108;DHT22;13090;53.422;7.670;2023-04-25T22:29:16;8.10;70.60
25108;DHT22;13090;53.422;7.670;2023-04-25T22:34:19;8.10;70.60
25108;DHT22;13090;53.422;7.670;2023-04-25T22:39:23;8.10;70.60
25108;DHT22;13090;53.422;7.670;2023-04-25T22:44:25;8.10;70.70
25108;DHT22;13090;53.422;7.670;2023-04-25T22:49:27;8.10;70.50
25108;DHT22;13090;53.422;7.670;2023-04-25T22:54:31;7.90;70.60
25108;DHT22;13090;53.422;7.670;2023-04-25T22:59:33;7.90;70.90
25108;DHT22;13090;53.422;7.670;2023-04-25T23:04:35;7.80;71.00
25108;DHT22;13090;53.422;7.670;2023-04-25T23:09:39;7.70;71.20
25108;DHT22;13090;53.422;7.670;2023-04-25T23:14:41;7.70;71.40
25108;DHT22;13090;53.422;7.670;2023-04-25T23:19:43;7.70;72.60
25108;DHT22;13090;53.422;7.670;2023-04-25T23:24:47;7.60;72.00
25108;DHT22;13090;53.422;7.670;2023-04-25T23:29:52;7.60;72.20
25108;DHT22;13090;53.422;7.670;2023-04-25T23:34:54;7.60;72.70
25108;DHT22;13090;53.422;7.670;2023-04-25T23:39:58;7.60;72.70
25108;DHT22;13090;53.422;7.670;2023-04-25T23:45:00;7.60;72.80
25108;DHT22;13090;53.422;7.670;2023-04-25T23:50:02;7.60;72.60
25108;DHT22;13090;53.422;7.670;2023-04-25T23:55:07;7.60;72.70
